sensor_id;sensor_type;location;lat;lon;timestamp;P1;durP1;ratioP1;P2;durP2;ratioP2
6739;SDS011;3407;49.882;10.920;2024-03-08T00:04:44;3.57;;;3.37;;
6739;SDS011;3407;49.882;10.920;2024-03-08T00:09:40;5.13;;;3.23;;
6739;SDS011;3407;49.882;10.920;2024-03-08T00:14:35;4.73;;;4.33;;
6739;SDS011;3407;49.882;10.920;2024-03-08T00:19:32;3.67;;;3.40;;
6739;SDS011;3407;49.882;10.920;2024-03-08T00:24:27;3.33;;;3.13;;
6739;SDS011;3407;49.882;10.920;2024-03-08T00:29:23;3.87;;;3.67;;
6739;SDS011;3407;49.882;10.920;2024-03-08T00:34:19;3.20;;;3.10;;
6739;SDS011;3407;49.882;10.920;2024-03-08T00:39:14;3.57;;;3.17;;
6739;SDS011;3407;49.882;10.920;2024-03-08T00:44:10;5.53;;;5.13;;
6739;SDS011;3407;49.882;10.920;2024-03-08T00:49:06;4.30;;;4.00;;
6739;SDS011;3407;49.882;10.920;2024-03-08T00:54:02;8.80;;;5.20;;
6739;SDS011;3407;49.882;10.920;2024-03-08T00:58:57;3.07;;;2.97;;
6739;SDS011;3407;49.882;10.920;2024-03-08T01:03:54;3.20;;;3.00;;
6739;SDS011;3407;49.882;10.920;2024-03-08T01:08:50;3.60;;;3.50;;
6739;SDS011;3407;49.882;10.920;2024-03-08T01:13:47;4.70;;;4.30;;
6739;SDS011;3407;49.882;10.920;2024-03-08T01:18:44;3.70;;;3.50;;
6739;SDS011;3407;49.882;10.920;2024-03-08T01:23:40;2.77;;;2.63;;
6739;SDS011;3407;49.882;10.920;2024-03-08T01:28:35;3.60;;;3.40;;
6739;SDS011;3407;49.882;10.920;2024-03-08T01:33:31;5.10;;;3.97;;
6739;SDS011;3407;49.882;10.920;2024-03-08T01:38:27;2.83;;;2.63;;
6739;SDS011;3407;49.882;10.920;2024-03-08T01:43:25;3.67;;;3.47;;
6739;SDS011;3407;49.882;10.920;2024-03-08T01:48:23;3.17;;;3.07;;
6739;SDS011;3407;49.882;10.920;2024-03-08T01:53:18;3.57;;;3.47;;
6739;SDS011;3407;49.882;10.920;2024-03-08T01:58:14;4.17;;;3.63;;
6739;SDS011;3407;49.882;10.920;2024-03-08T02:03:10;13.17;;;4.60;;
6739;SDS011;3407;49.882;10.920;2024-03-08T02:08:06;3.90;;;3.73;;
6739;SDS011;3407;49.882;10.920;2024-03-08T02:13:02;5.07;;;4.13;;
6739;SDS011;3407;49.882;10.920;2024-03-08T02:17:58;3.60;;;3.40;;
6739;SDS011;3407;49.882;10.920;2024-03-08T02:22:54;3.83;;;3.63;;
6739;SDS011;3407;49.882;10.920;2024-03-08T02:27:50;3.40;;;3.20;;
6739;SDS011;3407;49.882;10.920;2024-03-08T02:32:46;3.53;;;3.40;;
6739;SDS011;3407;49.882;10.920;2024-03-08T02:37:41;4.57;;;4.23;;
6739;SDS011;3407;49.882;10.920;2024-03-08T02:42:37;4.27;;;3.70;;
6739;SDS011;3407;49.882;10.920;2024-03-08T02:47:33;3.13;;;2.87;;
6739;SDS011;3407;49.882;10.920;2024-03-08T02:52:28;2.90;;;2.80;;
6739;SDS011;3407;49.882;10.920;2024-03-08T02:57:24;2.27;;;2.27;;
6739;SDS011;3407;49.882;10.920;2024-03-08T03:02:19;3.03;;;2.83;;
6739;SDS011;3407;49.882;10.920;2024-03-08T03:07:15;5.50;;;5.10;;
6739;SDS011;3407;49.882;10.920;2024-03-08T03:12:11;4.60;;;4.17;;
6739;SDS011;3407;49.882;10.920;2024-03-08T03:17:06;3.70;;;3.50;;
6739;SDS011;3407;49.882;10.920;2024-03-08T03:22:02;3.30;;;3.20;;
6739;SDS011;3407;49.882;10.920;2024-03-08T03:26:58;3.83;;;3.73;;
6739;SDS011;3407;49.882;10.920;2024-03-08T03:31:54;3.40;;;3.20;;
6739;SDS011;3407;49.882;10.920;2024-03-08T03:36:50;3.53;;;3.30;;
6739;SDS011;3407;49.882;10.920;2024-03-08T03:41:45;4.57;;;4.17;;
6739;SDS011;3407;49.882;10.920;2024-03-08T03:46:41;2.77;;;2.67;;
6739;SDS011;3407;49.882;10.920;2024-03-08T03:51:40;2.20;;;2.20;;
6739;SDS011;3407;49.882;10.920;2024-03-08T03:56:36;4.80;;;4.33;;
6739;SDS011;3407;49.882;10.920;2024-03-08T04:01:32;3.00;;;2.90;;
6739;SDS011;3407;49.882;10.920;2024-03-08T04:06:28;3.27;;;3.17;;
6739;SDS011;3407;49.882;10.920;2024-03-08T04:11:23;6.57;;;4.53;;
6739;SDS011;3407;49.882;10.920;2024-03-08T04:16:19;4.87;;;4.43;;
6739;SDS011;3407;49.882;10.920;2024-03-08T04:21:14;3.83;;;3.63;;
6739;SDS011;3407;49.882;10.920;2024-03-08T04:26:10;4.43;;;4.10;;
6739;SDS011;3407;49.882;10.920;2024-03-08T04:31:06;4.77;;;4.47;;
6739;SDS011;3407;49.882;10.920;2024-03-08T04:36:02;3.83;;;3.63;;
6739;SDS011;3407;49.882;10.920;2024-03-08T04:41:00;3.13;;;3.03;;
6739;SDS011;3407;49.882;10.920;2024-03-08T04:45:56;3.73;;;3.53;;
6739;SDS011;3407;49.882;10.920;2024-03-08T04:50:52;3.70;;;3.50;;
6739;SDS011;3407;49.882;10.920;2024-03-08T04:55:48;3.97;;;3.77;;
6739;SDS011;3407;49.882;10.920;2024-03-08T05:00:44;3.23;;;3.03;;
6739;SDS011;3407;49.882;10.920;2024-03-08T05:05:39;4.70;;;4.30;;
6739;SDS011;3407;49.882;10.920;2024-03-08T05:10:35;4.43;;;4.10;;
6739;SDS011;3407;49.882;10.920;2024-03-08T05:15:30;3.37;;;3.17;;
6739;SDS011;3407;49.882;10.920;2024-03-08T05:20:29;5.07;;;4.87;;
6739;SDS011;3407;49.882;10.920;2024-03-08T05:25:26;4.10;;;3.90;;
6739;SDS011;3407;49.882;10.920;2024-03-08T05:30:21;4.93;;;4.57;;
6739;SDS011;3407;49.882;10.920;2024-03-08T05:35:17;3.07;;;2.97;;
6739;SDS011;3407;49.882;10.920;2024-03-08T05:40:12;4.67;;;4.37;;
6739;SDS011;3407;49.882;10.920;2024-03-08T05:45:08;4.27;;;4.07;;
6739;SDS011;3407;49.882;10.920;2024-03-08T05:50:06;4.10;;;3.80;;
6739;SDS011;3407;49.882;10.920;2024-03-08T05:55:05;4.33;;;4.03;;
6739;SDS011;3407;49.882;10.920;2024-03-08T06:00:05;3.30;;;3.20;;
6739;SDS011;3407;49.882;10.920;2024-03-08T06:05:01;6.10;;;5.67;;
6739;SDS011;3407;49.882;10.920;2024-03-08T06:09:57;5.50;;;3.17;;
6739;SDS011;3407;49.882;10.920;2024-03-08T06:14:53;3.67;;;3.47;;
6739;SDS011;3407;49.882;10.920;2024-03-08T06:19:49;4.27;;;3.90;;
6739;SDS011;3407;49.882;10.920;2024-03-08T06:24:45;3.40;;;3.30;;
6739;SDS011;3407;49.882;10.920;2024-03-08T06:29:40;4.50;;;4.20;;
6739;SDS011;3407;49.882;10.920;2024-03-08T06:34:36;3.73;;;3.60;;
6739;SDS011;3407;49.882;10.920;2024-03-08T06:39:31;12.30;;;4.27;;
6739;SDS011;3407;49.882;10.920;2024-03-08T06:44:27;3.73;;;3.47;;
6739;SDS011;3407;49.882;10.920;2024-03-08T06:49:23;4.07;;;3.77;;
6739;SDS011;3407;49.882;10.920;2024-03-08T06:54:18;3.80;;;3.70;;
6739;SDS011;3407;49.882;10.920;2024-03-08T06:59:14;3.13;;;2.93;;
6739;SDS011;3407;49.882;10.920;2024-03-08T07:04:10;4.87;;;4.47;;
6739;SDS011;3407;49.882;10.920;2024-03-08T07:09:06;4.63;;;4.27;;
6739;SDS011;3407;49.882;10.920;2024-03-08T07:14:02;6.13;;;5.60;;
6739;SDS011;3407;49.882;10.920;2024-03-08T07:19:03;7.60;;;6.83;;
6739;SDS011;3407;49.882;10.920;2024-03-08T07:24:00;9.13;;;6.17;;
6739;SDS011;3407;49.882;10.920;2024-03-08T07:28:55;5.83;;;4.70;;
6739;SDS011;3407;49.882;10.920;2024-03-08T07:33:52;10.53;;;5.53;;
6739;SDS011;3407;49.882;10.920;2024-03-08T07:38:48;9.33;;;5.37;;
6739;SDS011;3407;49.882;10.920;2024-03-08T07:43:43;8.30;;;5.03;;
6739;SDS011;3407;49.882;10.920;2024-03-08T07:48:39;6.60;;;4.47;;
6739;SDS011;3407;49.882;10.920;2024-03-08T07:53:35;8.83;;;5.00;;
6739;SDS011;3407;49.882;10.920;2024-03-08T07:58:31;7.10;;;5.23;;
6739;SDS011;3407;49.882;10.920;2024-03-08T08:03:26;8.57;;;6.17;;
6739;SDS011;3407;49.882;10.920;2024-03-08T08:08:22;9.97;;;6.60;;
6739;SDS011;3407;49.882;10.920;2024-03-08T08:13:17;11.40;;;5.47;;
6739;SDS011;3407;49.882;10.920;2024-03-08T08:18:13;9.10;;;5.50;;
6739;SDS011;3407;49.882;10.920;2024-03-08T08:23:09;10.67;;;5.40;;
6739;SDS011;3407;49.882;10.920;2024-03-08T08:28:07;8.20;;;6.63;;
6739;SDS011;3407;49.882;10.920;2024-03-08T08:33:03;9.83;;;5.73;;
6739;SDS011;3407;49.882;10.920;2024-03-08T08:38:00;10.20;;;4.97;;
6739;SDS011;3407;49.882;10.920;2024-03-08T08:42:56;8.80;;;5.27;;
6739;SDS011;3407;49.882;10.920;2024-03-08T08:47:54;9.50;;;5.33;;
6739;SDS011;3407;49.882;10.920;2024-03-08T08:52:50;6.93;;;4.47;;
6739;SDS011;3407;49.882;10.920;2024-03-08T08:57:45;8.47;;;4.20;;
6739;SDS011;3407;49.882;10.920;2024-03-08T09:02:42;8.47;;;4.67;;
6739;SDS011;3407;49.882;10.920;2024-03-08T09:07:38;4.80;;;4.33;;
6739;SDS011;3407;49.882;10.920;2024-03-08T09:12:33;10.13;;;5.40;;
6739;SDS011;3407;49.882;10.920;2024-03-08T09:17:29;6.83;;;3.53;;
6739;SDS011;3407;49.882;10.920;2024-03-08T09:22:25;5.57;;;4.83;;
6739;SDS011;3407;49.882;10.920;2024-03-08T09:27:20;9.87;;;4.67;;
6739;SDS011;3407;49.882;10.920;2024-03-08T09:32:16;9.83;;;5.00;;
6739;SDS011;3407;49.882;10.920;2024-03-08T09:37:11;7.73;;;6.10;;
6739;SDS011;3407;49.882;10.920;2024-03-08T09:42:07;8.73;;;5.90;;
6739;SDS011;3407;49.882;10.920;2024-03-08T09:47:03;9.73;;;6.10;;
6739;SDS011;3407;49.882;10.920;2024-03-08T09:52:00;7.03;;;4.77;;
6739;SDS011;3407;49.882;10.920;2024-03-08T09:56:55;9.97;;;6.03;;
6739;SDS011;3407;49.882;10.920;2024-03-08T10:01:51;9.73;;;5.83;;
6739;SDS011;3407;49.882;10.920;2024-03-08T10:06:54;4.03;;;3.50;;
6739;SDS011;3407;49.882;10.920;2024-03-08T10:11:53;8.20;;;5.80;;
6739;SDS011;3407;49.882;10.920;2024-03-08T10:16:55;5.80;;;4.17;;
6739;SDS011;3407;49.882;10.920;2024-03-08T10:21:55;7.30;;;4.83;;
6739;SDS011;3407;49.882;10.920;2024-03-08T10:26:52;5.67;;;4.03;;
6739;SDS011;3407;49.882;10.920;2024-03-08T10:31:49;6.83;;;4.50;;
6739;SDS011;3407;49.882;10.920;2024-03-08T10:36:45;7.67;;;4.37;;
6739;SDS011;3407;49.882;10.920;2024-03-08T10:41:42;6.27;;;5.07;;
6739;SDS011;3407;49.882;10.920;2024-03-08T10:46:47;7.83;;;5.30;;
6739;SDS011;3407;49.882;10.920;2024-03-08T10:52:11;4.50;;;4.07;;
6739;SDS011;3407;49.882;10.920;2024-03-08T10:57:08;5.83;;;4.07;;
6739;SDS011;3407;49.882;10.920;2024-03-08T11:02:05;5.47;;;4.03;;
6739;SDS011;3407;49.882;10.920;2024-03-08T11:07:01;5.00;;;3.83;;
6739;SDS011;3407;49.882;10.920;2024-03-08T11:22:27;6.23;;;3.57;;
6739;SDS011;3407;49.882;10.920;2024-03-08T11:27:32;5.77;;;3.60;;
6739;SDS011;3407;49.882;10.920;2024-03-08T11:32:29;5.33;;;3.50;;
6739;SDS011;3407;49.882;10.920;2024-03-08T11:37:25;6.97;;;3.60;;
6739;SDS011;3407;49.882;10.920;2024-03-08T11:42:25;5.20;;;3.93;;
6739;SDS011;3407;49.882;10.920;2024-03-08T11:47:23;10.40;;;4.97;;
6739;SDS011;3407;49.882;10.920;2024-03-08T11:52:21;8.40;;;4.80;;
6739;SDS011;3407;49.882;10.920;2024-03-08T11:57:21;6.43;;;3.63;;
6739;SDS011;3407;49.882;10.920;2024-03-08T12:02:18;5.70;;;3.87;;
6739;SDS011;3407;49.882;10.920;2024-03-08T12:07:17;7.20;;;4.33;;
6739;SDS011;3407;49.882;10.920;2024-03-08T12:12:14;6.17;;;4.37;;
6739;SDS011;3407;49.882;10.920;2024-03-08T12:17:09;4.93;;;2.70;;
6739;SDS011;3407;49.882;10.920;2024-03-08T12:22:08;6.13;;;4.60;;
6739;SDS011;3407;49.882;10.920;2024-03-08T12:27:17;7.37;;;4.97;;
6739;SDS011;3407;49.882;10.920;2024-03-08T12:32:14;5.83;;;4.00;;
6739;SDS011;3407;49.882;10.920;2024-03-08T12:37:10;6.17;;;4.00;;
6739;SDS011;3407;49.882;10.920;2024-03-08T12:42:07;5.13;;;3.60;;
6739;SDS011;3407;49.882;10.920;2024-03-08T12:47:03;5.80;;;3.67;;
6739;SDS011;3407;49.882;10.920;2024-03-08T12:51:59;7.07;;;3.90;;
6739;SDS011;3407;49.882;10.920;2024-03-08T12:56:55;4.03;;;3.40;;
6739;SDS011;3407;49.882;10.920;2024-03-08T13:01:51;5.93;;;2.97;;
6739;SDS011;3407;49.882;10.920;2024-03-08T13:06:48;4.67;;;3.40;;
6739;SDS011;3407;49.882;10.920;2024-03-08T13:11:44;6.20;;;3.27;;
6739;SDS011;3407;49.882;10.920;2024-03-08T13:16:40;5.33;;;3.57;;
6739;SDS011;3407;49.882;10.920;2024-03-08T13:21:35;4.30;;;3.30;;
6739;SDS011;3407;49.882;10.920;2024-03-08T13:26:31;6.67;;;3.83;;
6739;SDS011;3407;49.882;10.920;2024-03-08T13:31:29;5.27;;;3.47;;
6739;SDS011;3407;49.882;10.920;2024-03-08T13:36:25;4.83;;;2.90;;
6739;SDS011;3407;49.882;10.920;2024-03-08T13:41:24;4.63;;;2.73;;
6739;SDS011;3407;49.882;10.920;2024-03-08T13:46:20;5.23;;;3.23;;
6739;SDS011;3407;49.882;10.920;2024-03-08T13:51:15;5.07;;;3.60;;
6739;SDS011;3407;49.882;10.920;2024-03-08T13:56:12;3.67;;;2.53;;
6739;SDS011;3407;49.882;10.920;2024-03-08T14:01:09;3.77;;;3.30;;
6739;SDS011;3407;49.882;10.920;2024-03-08T14:06:06;5.07;;;3.40;;
6739;SDS011;3407;49.882;10.920;2024-03-08T14:11:02;2.50;;;2.30;;
6739;SDS011;3407;49.882;10.920;2024-03-08T14:16:06;3.97;;;3.00;;
6739;SDS011;3407;49.882;10.920;2024-03-08T14:21:04;4.10;;;2.80;;
6739;SDS011;3407;49.882;10.920;2024-03-08T14:26:00;2.83;;;2.47;;
6739;SDS011;3407;49.882;10.920;2024-03-08T14:30:56;2.27;;;2.07;;
6739;SDS011;3407;49.882;10.920;2024-03-08T14:35:53;2.07;;;1.97;;
6739;SDS011;3407;49.882;10.920;2024-03-08T14:40:48;4.20;;;3.20;;
6739;SDS011;3407;49.882;10.920;2024-03-08T14:45:44;3.80;;;2.43;;
6739;SDS011;3407;49.882;10.920;2024-03-08T14:50:42;3.10;;;2.57;;
6739;SDS011;3407;49.882;10.920;2024-03-08T14:55:39;3.77;;;2.33;;
6739;SDS011;3407;49.882;10.920;2024-03-08T15:00:34;4.77;;;2.97;;
6739;SDS011;3407;49.882;10.920;2024-03-08T15:05:30;2.97;;;2.40;;
6739;SDS011;3407;49.882;10.920;2024-03-08T15:10:27;3.07;;;2.20;;
6739;SDS011;3407;49.882;10.920;2024-03-08T15:15:24;3.77;;;2.70;;
6739;SDS011;3407;49.882;10.920;2024-03-08T15:20:20;3.47;;;2.47;;
6739;SDS011;3407;49.882;10.920;2024-03-08T15:25:24;4.93;;;2.57;;
6739;SDS011;3407;49.882;10.920;2024-03-08T15:30:23;3.23;;;2.93;;
6739;SDS011;3407;49.882;10.920;2024-03-08T15:35:21;3.17;;;2.57;;
6739;SDS011;3407;49.882;10.920;2024-03-08T15:40:17;2.40;;;2.20;;
6739;SDS011;3407;49.882;10.920;2024-03-08T15:45:18;4.20;;;2.60;;
6739;SDS011;3407;49.882;10.920;2024-03-08T15:50:15;3.07;;;2.60;;
6739;SDS011;3407;49.882;10.920;2024-03-08T15:55:16;2.20;;;1.70;;
6739;SDS011;3407;49.882;10.920;2024-03-08T16:00:20;3.53;;;3.23;;
6739;SDS011;3407;49.882;10.920;2024-03-08T16:05:30;2.43;;;2.23;;
6739;SDS011;3407;49.882;10.920;2024-03-08T16:10:26;3.47;;;3.03;;
6739;SDS011;3407;49.882;10.920;2024-03-08T16:15:23;3.40;;;3.10;;
6739;SDS011;3407;49.882;10.920;2024-03-08T16:20:20;3.00;;;2.77;;
6739;SDS011;3407;49.882;10.920;2024-03-08T16:25:17;3.07;;;2.87;;
6739;SDS011;3407;49.882;10.920;2024-03-08T16:30:15;3.00;;;2.63;;
6739;SDS011;3407;49.882;10.920;2024-03-08T16:35:10;3.20;;;2.30;;
6739;SDS011;3407;49.882;10.920;2024-03-08T16:40:06;3.47;;;3.17;;
6739;SDS011;3407;49.882;10.920;2024-03-08T16:45:13;3.23;;;2.77;;
6739;SDS011;3407;49.882;10.920;2024-03-08T16:50:09;2.03;;;1.93;;
6739;SDS011;3407;49.882;10.920;2024-03-08T16:55:08;3.47;;;3.00;;
6739;SDS011;3407;49.882;10.920;2024-03-08T17:00:08;3.00;;;2.60;;
6739;SDS011;3407;49.882;10.920;2024-03-08T17:05:08;2.57;;;2.47;;
6739;SDS011;3407;49.882;10.920;2024-03-08T17:10:04;3.13;;;2.93;;
6739;SDS011;3407;49.882;10.920;2024-03-08T17:15:10;4.47;;;3.27;;
6739;SDS011;3407;49.882;10.920;2024-03-08T17:20:09;4.00;;;3.60;;
6739;SDS011;3407;49.882;10.920;2024-03-08T17:25:10;2.13;;;2.00;;
6739;SDS011;3407;49.882;10.920;2024-03-08T17:30:10;3.47;;;3.17;;
6739;SDS011;3407;49.882;10.920;2024-03-08T17:35:15;3.70;;;2.70;;
6739;SDS011;3407;49.882;10.920;2024-03-08T17:40:14;5.77;;;3.13;;
6739;SDS011;3407;49.882;10.920;2024-03-08T17:45:13;3.60;;;2.50;;
6739;SDS011;3407;49.882;10.920;2024-03-08T17:50:12;4.17;;;3.87;;
6739;SDS011;3407;49.882;10.920;2024-03-08T17:55:11;3.07;;;2.83;;
6739;SDS011;3407;49.882;10.920;2024-03-08T18:00:09;2.93;;;2.60;;
6739;SDS011;3407;49.882;10.920;2024-03-08T18:05:21;3.43;;;3.23;;
6739;SDS011;3407;49.882;10.920;2024-03-08T18:10:19;5.33;;;4.23;;
6739;SDS011;3407;49.882;10.920;2024-03-08T18:15:15;13.17;;;4.07;;
6739;SDS011;3407;49.882;10.920;2024-03-08T18:20:21;4.30;;;3.93;;
6739;SDS011;3407;49.882;10.920;2024-03-08T18:25:24;4.77;;;4.37;;
6739;SDS011;3407;49.882;10.920;2024-03-08T18:30:22;4.33;;;3.33;;
6739;SDS011;3407;49.882;10.920;2024-03-08T18:35:19;5.17;;;3.97;;
6739;SDS011;3407;49.882;10.920;2024-03-08T18:40:16;5.40;;;3.47;;
6739;SDS011;3407;49.882;10.920;2024-03-08T18:45:18;3.97;;;3.60;;
6739;SDS011;3407;49.882;10.920;2024-03-08T18:50:16;4.27;;;3.87;;
6739;SDS011;3407;49.882;10.920;2024-03-08T18:55:17;5.40;;;4.40;;
6739;SDS011;3407;49.882;10.920;2024-03-08T19:00:22;3.33;;;2.57;;
6739;SDS011;3407;49.882;10.920;2024-03-08T19:05:33;6.37;;;4.13;;
6739;SDS011;3407;49.882;10.920;2024-03-08T19:10:29;2.60;;;2.40;;
6739;SDS011;3407;49.882;10.920;2024-03-08T19:15:25;5.63;;;4.97;;
6739;SDS011;3407;49.882;10.920;2024-03-08T19:20:22;3.47;;;3.20;;
6739;SDS011;3407;49.882;10.920;2024-03-08T19:25:29;8.07;;;3.87;;
6739;SDS011;3407;49.882;10.920;2024-03-08T19:30:27;3.53;;;3.33;;
6739;SDS011;3407;49.882;10.920;2024-03-08T19:35:26;2.87;;;2.67;;
6739;SDS011;3407;49.882;10.920;2024-03-08T19:40:23;2.83;;;2.63;;
6739;SDS011;3407;49.882;10.920;2024-03-08T19:45:28;3.27;;;3.07;;
6739;SDS011;3407;49.882;10.920;2024-03-08T19:50:25;4.37;;;4.03;;
6739;SDS011;3407;49.882;10.920;2024-03-08T19:55:25;3.13;;;2.93;;
6739;SDS011;3407;49.882;10.920;2024-03-08T20:00:21;3.83;;;3.17;;
6739;SDS011;3407;49.882;10.920;2024-03-08T20:05:23;3.37;;;3.17;;
6739;SDS011;3407;49.882;10.920;2024-03-08T20:10:23;3.77;;;3.57;;
6739;SDS011;3407;49.882;10.920;2024-03-08T20:15:19;2.60;;;2.50;;
6739;SDS011;3407;49.882;10.920;2024-03-08T20:20:20;3.73;;;3.40;;
6739;SDS011;3407;49.882;10.920;2024-03-08T20:25:17;3.00;;;2.80;;
6739;SDS011;3407;49.882;10.920;2024-03-08T20:30:16;3.43;;;2.23;;
6739;SDS011;3407;49.882;10.920;2024-03-08T20:35:19;3.87;;;3.60;;
6739;SDS011;3407;49.882;10.920;2024-03-08T20:40:15;3.77;;;3.47;;
6739;SDS011;3407;49.882;10.920;2024-03-08T20:45:18;4.60;;;4.10;;
6739;SDS011;3407;49.882;10.920;2024-03-08T20:50:14;3.87;;;3.57;;
6739;SDS011;3407;49.882;10.920;2024-03-08T20:55:10;1.93;;;1.90;;
6739;SDS011;3407;49.882;10.920;2024-03-08T21:00:08;4.30;;;2.87;;
6739;SDS011;3407;49.882;10.920;2024-03-08T21:05:13;2.43;;;2.23;;
6739;SDS011;3407;49.882;10.920;2024-03-08T21:10:13;3.00;;;2.80;;
6739;SDS011;3407;49.882;10.920;2024-03-08T21:15:09;3.93;;;2.30;;
6739;SDS011;3407;49.882;10.920;2024-03-08T21:20:05;3.13;;;2.80;;
6739;SDS011;3407;49.882;10.920;2024-03-08T21:25:04;3.33;;;3.13;;
6739;SDS011;3407;49.882;10.920;2024-03-08T21:30:00;2.53;;;2.43;;
6739;SDS011;3407;49.882;10.920;2024-03-08T21:34:55;3.27;;;3.17;;
6739;SDS011;3407;49.882;10.920;2024-03-08T21:39:51;2.37;;;2.27;;
6739;SDS011;3407;49.882;10.920;2024-03-08T21:44:47;2.53;;;2.43;;
6739;SDS011;3407;49.882;10.920;2024-03-08T21:49:43;10.00;;;2.70;;
6739;SDS011;3407;49.882;10.920;2024-03-08T21:54:40;3.40;;;3.10;;
6739;SDS011;3407;49.882;10.920;2024-03-08T21:59:35;2.07;;;1.97;;
6739;SDS011;3407;49.882;10.920;2024-03-08T22:04:34;2.57;;;2.37;;
6739;SDS011;3407;49.882;10.920;2024-03-08T22:09:30;2.53;;;2.33;;
6739;SDS011;3407;49.882;10.920;2024-03-08T22:14:25;3.23;;;2.93;;
6739;SDS011;3407;49.882;10.920;2024-03-08T22:19:21;2.73;;;2.63;;
6739;SDS011;3407;49.882;10.920;2024-03-08T22:24:20;2.93;;;2.73;;
6739;SDS011;3407;49.882;10.920;2024-03-08T22:29:16;3.90;;;3.37;;
6739;SDS011;3407;49.882;10.920;2024-03-08T22:34:12;3.07;;;2.87;;
6739;SDS011;3407;49.882;10.920;2024-03-08T22:39:07;2.47;;;2.33;;
6739;SDS011;3407;49.882;10.920;2024-03-08T22:44:05;3.10;;;2.93;;
6739;SDS011;3407;49.882;10.920;2024-03-08T22:49:03;2.23;;;2.13;;
6739;SDS011;3407;49.882;10.920;2024-03-08T22:53:58;3.13;;;3.03;;
6739;SDS011;3407;49.882;10.920;2024-03-08T22:58:54;3.30;;;3.17;;
6739;SDS011;3407;49.882;10.920;2024-03-08T23:03:51;2.50;;;2.40;;
6739;SDS011;3407;49.882;10.920;2024-03-08T23:08:47;2.60;;;2.50;;
6739;SDS011;3407;49.882;10.920;2024-03-08T23:13:43;2.27;;;2.17;;
6739;SDS011;3407;49.882;10.920;2024-03-08T23:18:40;2.50;;;2.37;;
6739;SDS011;3407;49.882;10.920;2024-03-08T23:23:37;2.73;;;2.63;;
6739;SDS011;3407;49.882;10.920;2024-03-08T23:28:34;3.17;;;3.00;;
6739;SDS011;3407;49.882;10.920;2024-03-08T23:33:29;2.83;;;2.63;;
6739;SDS011;3407;49.882;10.920;2024-03-08T23:38:25;5.03;;;3.60;;
6739;SDS011;3407;49.882;10.920;2024-03-08T23:43:21;2.83;;;2.50;;
6739;SDS011;3407;49.882;10.920;2024-03-08T23:48:16;2.23;;;2.20;;
6739;SDS011;3407;49.882;10.920;2024-03-08T23:53:12;2.97;;;2.87;;
6739;SDS011;3407;49.882;10.920;2024-03-08T23:58:08;2.00;;;1.90;;
